createdAt,value
2022-08-30T00:02:12.479Z,89.07
2022-08-30T00:04:39.630Z,89.48
2022-08-30T00:07:06.521Z,89.54
2022-08-30T00:09:33.544Z,89.61
2022-08-30T00:12:00.344Z,90.69
2022-08-30T00:14:27.710Z,90.50
2022-08-30T00:16:54.846Z,90.74
2022-08-30T00:19:23.033Z,91.46
2022-08-30T00:21:49.932Z,91.89
2022-08-30T00:24:16.870Z,91.91
2022-08-30T00:26:43.851Z,91.28
2022-08-30T00:29:10.874Z,90.96
2022-08-30T00:31:37.717Z,90.68
2022-08-30T00:34:05.213Z,91.02
2022-08-30T00:36:33.446Z,91.21
2022-08-30T00:39:00.466Z,91.58
2022-08-30T00:41:27.318Z,91.23
2022-08-30T00:43:54.147Z,91.41
2022-08-30T00:46:21.157Z,90.74
2022-08-30T00:48:49.862Z,91.23
2022-08-30T00:51:18.000Z,90.96
2022-08-30T00:53:49.167Z,91.66
2022-08-30T00:56:16.878Z,91.33
2022-08-30T00:58:47.356Z,91.21
2022-08-30T01:01:14.634Z,90.35
2022-08-30T01:03:43.779Z,90.66
2022-08-30T01:06:11.719Z,90.81
2022-08-30T01:08:39.254Z,91.07
2022-08-30T01:11:08.909Z,90.54
2022-08-30T01:13:36.043Z,89.66
2022-08-30T01:16:04.762Z,89.67
2022-08-30T01:18:32.426Z,89.16
2022-08-30T01:21:07.056Z,88.59
2022-08-30T01:23:38.358Z,88.65
2022-08-30T01:26:06.148Z,88.79
2022-08-30T01:28:34.825Z,88.91
2022-08-30T01:31:02.012Z,89.08
2022-08-30T01:33:29.317Z,90.19
2022-08-30T01:36:01.205Z,89.37
2022-08-30T01:38:31.034Z,88.50
2022-08-30T01:41:00.657Z,88.54
2022-08-30T01:43:27.699Z,87.91
2022-08-30T01:45:54.669Z,88.11
2022-08-30T01:48:22.390Z,87.97
2022-08-30T01:50:57.108Z,88.21
2022-08-30T01:53:23.953Z,88.26
2022-08-30T01:55:50.762Z,87.92
2022-08-30T01:58:19.159Z,87.74
2022-08-30T02:00:46.037Z,86.89
2022-08-30T02:03:12.937Z,87.15
2022-08-30T02:05:39.889Z,86.63
2022-08-30T02:08:06.714Z,87.08
2022-08-30T02:10:33.673Z,87.26
2022-08-30T02:13:00.586Z,86.84
2022-08-30T02:15:29.013Z,86.90
2022-08-30T02:17:56.070Z,86.81
2022-08-30T02:20:23.256Z,86.99
2022-08-30T02:22:50.390Z,86.61
2022-08-30T02:25:21.179Z,87.10
2022-08-30T02:27:48.332Z,85.75
2022-08-30T02:30:15.238Z,86.05
2022-08-30T02:32:43.474Z,86.29
2022-08-30T02:35:10.481Z,86.33
2022-08-30T02:37:37.601Z,86.66
2022-08-30T02:40:07.032Z,87.10
2022-08-30T02:42:34.294Z,86.22
2022-08-30T02:45:01.238Z,86.62
2022-08-30T02:47:28.212Z,86.73
2022-08-30T02:49:56.460Z,86.99
2022-08-30T02:52:27.969Z,86.79
2022-08-30T02:54:55.566Z,87.31
2022-08-30T02:57:22.987Z,86.95
2022-08-30T02:59:50.108Z,87.04
2022-08-30T03:02:17.280Z,87.02
2022-08-30T03:04:46.841Z,87.37
2022-08-30T03:07:16.315Z,87.28
2022-08-30T03:09:43.437Z,87.41
2022-08-30T03:12:10.784Z,87.15
2022-08-30T03:14:38.961Z,86.83
2022-08-30T03:17:11.207Z,87.31
2022-08-30T03:19:43.045Z,87.63
2022-08-30T03:22:10.699Z,87.99
2022-08-30T03:24:39.384Z,87.91
2022-08-30T03:27:08.120Z,88.31
2022-08-30T03:29:35.451Z,88.07
2022-08-30T03:32:02.844Z,88.54
2022-08-30T03:34:29.790Z,88.92
2022-08-30T03:36:56.878Z,89.30
2022-08-30T03:39:24.838Z,89.14
2022-08-30T03:41:54.024Z,88.82
2022-08-30T03:44:21.474Z,88.60
2022-08-30T03:46:48.597Z,87.96
2022-08-30T03:49:15.930Z,88.44
2022-08-30T03:51:42.774Z,88.43
2022-08-30T03:54:10.096Z,88.50
2022-08-30T03:56:37.213Z,88.70
2022-08-30T03:59:05.825Z,89.38
2022-08-30T04:01:33.025Z,89.34
2022-08-30T04:03:59.960Z,89.82
2022-08-30T04:06:27.482Z,89.83
2022-08-30T04:08:55.203Z,89.03
2022-08-30T04:11:22.150Z,88.94
2022-08-30T04:13:51.845Z,89.23
2022-08-30T04:16:20.441Z,88.60
2022-08-30T04:18:47.528Z,88.49
2022-08-30T04:21:14.529Z,88.77
2022-08-30T04:23:41.412Z,89.28
2022-08-30T04:26:08.672Z,89.65
2022-08-30T04:28:36.147Z,89.33
2022-08-30T04:31:08.676Z,89.91
2022-08-30T04:33:41.306Z,90.88
2022-08-30T04:36:09.798Z,90.86
2022-08-30T04:38:39.436Z,91.05
2022-08-30T04:41:10.518Z,91.28
2022-08-30T04:43:37.509Z,91.73
2022-08-30T04:46:06.972Z,92.09
2022-08-30T04:48:35.075Z,92.34
2022-08-30T04:51:05.954Z,92.32
2022-08-30T04:53:33.350Z,92.32
2022-08-30T04:56:00.284Z,92.53
2022-08-30T04:58:27.470Z,93.02
2022-08-30T05:00:54.364Z,92.66
2022-08-30T05:03:21.441Z,92.17
2022-08-30T05:05:49.077Z,90.64
2022-08-30T05:08:23.257Z,89.12
2022-08-30T05:10:53.380Z,88.47
2022-08-30T05:13:35.335Z,88.97
2022-08-30T05:16:05.780Z,88.18
2022-08-30T05:18:32.901Z,87.32
2022-08-30T05:21:04.329Z,87.09
2022-08-30T05:23:32.705Z,87.45
2022-08-30T05:25:59.558Z,86.81
2022-08-30T05:28:26.614Z,87.12
2022-08-30T05:30:53.513Z,86.86
2022-08-30T05:33:20.366Z,87.16
2022-08-30T05:35:47.370Z,86.19
2022-08-30T05:38:14.254Z,85.64
2022-08-30T05:40:43.858Z,86.20
2022-08-30T05:43:11.448Z,86.46
2022-08-30T05:45:38.488Z,86.08
2022-08-30T05:48:05.976Z,86.32
2022-08-30T05:50:34.946Z,86.19
2022-08-30T05:53:03.776Z,85.88
2022-08-30T05:55:31.170Z,86.23
2022-08-30T05:58:00.791Z,85.79
2022-08-30T06:00:30.523Z,85.85
2022-08-30T06:02:57.789Z,86.08
2022-08-30T06:05:24.628Z,85.63
2022-08-30T06:07:51.475Z,84.66
2022-08-30T06:10:18.453Z,85.39
2022-08-30T06:12:45.331Z,85.39
2022-08-30T06:15:13.784Z,84.19
2022-08-30T06:17:40.710Z,84.20
2022-08-30T06:20:09.121Z,83.92
2022-08-30T06:22:36.374Z,83.44
2022-08-30T06:25:04.359Z,83.92
2022-08-30T06:27:31.508Z,82.82
2022-08-30T06:29:58.423Z,81.93
2022-08-30T06:32:26.713Z,81.40
2022-08-30T06:34:53.649Z,81.22
2022-08-30T06:37:24.641Z,80.51
2022-08-30T06:39:57.694Z,81.49
2022-08-30T06:42:30.622Z,79.57
2022-08-30T06:44:57.718Z,79.66
2022-08-30T06:47:26.495Z,79.93
2022-08-30T06:49:53.282Z,78.00
2022-08-30T06:52:20.701Z,76.65
2022-08-30T06:54:47.686Z,74.97
2022-08-30T06:57:14.529Z,76.81
2022-08-30T06:59:41.627Z,75.72
2022-08-30T07:02:09.046Z,75.23
2022-08-30T07:04:38.947Z,72.37
2022-08-30T07:07:06.128Z,70.96
2022-08-30T07:12:06.777Z,70.20
2022-08-30T07:14:33.588Z,70.88
2022-08-30T07:17:00.596Z,69.92
2022-08-30T07:19:27.449Z,69.16
2022-08-30T07:21:55.747Z,67.97
2022-08-30T07:24:22.725Z,69.11
2022-08-30T07:26:52.087Z,68.29
2022-08-30T07:29:19.955Z,67.18
2022-08-30T07:31:47.081Z,69.23
2022-08-30T07:34:13.989Z,69.49
2022-08-30T07:36:40.821Z,68.56
2022-08-30T07:39:09.953Z,66.24
2022-08-30T07:41:39.033Z,67.02
2022-08-30T07:44:06.477Z,67.56
2022-08-30T07:46:33.922Z,67.47
2022-08-30T07:49:01.863Z,66.85
2022-08-30T07:51:32.479Z,68.52
2022-08-30T07:54:00.656Z,67.72
2022-08-30T07:56:29.052Z,68.48
2022-08-30T07:58:56.007Z,67.96
2022-08-30T08:01:23.729Z,66.22
2022-08-30T08:03:51.627Z,64.46
2022-08-30T08:06:21.114Z,65.35
2022-08-30T08:08:48.142Z,63.99
2022-08-30T08:11:17.958Z,66.19
2022-08-30T08:13:53.506Z,65.84
2022-08-30T08:16:22.414Z,65.98
2022-08-30T08:18:49.442Z,66.04
2022-08-30T08:21:16.668Z,64.17
2022-08-30T08:23:43.689Z,61.74
2022-08-30T08:26:11.173Z,61.02
2022-08-30T08:28:38.078Z,61.50
2022-08-30T08:31:14.499Z,63.67
2022-08-30T08:33:41.280Z,64.24
2022-08-30T08:36:09.484Z,61.17
2022-08-30T08:38:37.836Z,57.10
2022-08-30T08:41:12.960Z,57.20
2022-08-30T08:43:40.157Z,58.45
2022-08-30T08:46:16.651Z,58.97
2022-08-30T08:48:59.654Z,60.26
2022-08-30T08:51:49.391Z,62.29
2022-08-30T08:54:23.085Z,59.30
2022-08-30T08:56:50.342Z,61.42
2022-08-30T08:59:17.844Z,62.21
2022-08-30T09:01:47.740Z,63.57
2022-08-30T09:04:17.693Z,64.96
2022-08-30T09:06:57.087Z,64.97
2022-08-30T09:09:27.841Z,63.04
2022-08-30T09:11:54.776Z,63.31
2022-08-30T09:14:25.422Z,62.47
2022-08-30T09:17:02.871Z,61.80
2022-08-30T09:19:40.390Z,61.13
2022-08-30T09:22:26.281Z,61.33
2022-08-30T09:24:59.448Z,59.44
2022-08-30T09:27:30.907Z,59.32
2022-08-30T09:30:02.111Z,60.51
2022-08-30T09:32:33.890Z,60.29
2022-08-30T09:35:01.306Z,59.63
2022-08-30T09:37:33.392Z,59.38
2022-08-30T09:40:00.367Z,60.55
2022-08-30T09:42:30.181Z,58.45
2022-08-30T09:45:10.512Z,58.58
2022-08-30T09:47:42.961Z,56.90
2022-08-30T09:50:13.705Z,53.85
2022-08-30T09:52:56.505Z,52.12
2022-08-30T09:56:01.940Z,51.55
2022-08-30T09:58:43.594Z,49.99
2022-08-30T10:01:15.043Z,49.25
2022-08-30T10:03:50.186Z,49.44
2022-08-30T10:06:29.033Z,49.61
2022-08-30T10:09:11.939Z,48.74
2022-08-30T10:11:49.383Z,49.24
2022-08-30T10:14:36.842Z,46.97
2022-08-30T10:17:12.414Z,44.12
2022-08-30T10:19:59.224Z,42.41
2022-08-30T10:22:31.032Z,40.91
2022-08-30T10:25:05.289Z,40.75
2022-08-30T10:27:38.759Z,45.91
2022-08-30T10:30:08.559Z,43.85
2022-08-30T10:32:41.953Z,40.50
2022-08-30T10:35:19.526Z,40.11
2022-08-30T10:37:51.387Z,43.03
2022-08-30T10:40:44.766Z,44.25
2022-08-30T10:43:19.510Z,44.77
2022-08-30T10:45:49.108Z,43.42
2022-08-30T10:48:21.452Z,42.47
2022-08-30T10:50:53.800Z,40.47
2022-08-30T10:53:29.553Z,40.98
2022-08-30T10:56:02.635Z,42.65
2022-08-30T10:58:31.590Z,39.77
2022-08-30T11:01:26.726Z,42.49
2022-08-30T11:04:28.478Z,40.83
2022-08-30T11:07:09.925Z,39.41
2022-08-30T11:09:52.855Z,40.34
2022-08-30T11:12:34.181Z,39.43
2022-08-30T11:15:14.542Z,38.60
2022-08-30T11:17:47.206Z,38.95
2022-08-30T11:20:29.987Z,41.01
2022-08-30T11:23:25.833Z,40.05
2022-08-30T11:25:57.868Z,39.59
2022-08-30T11:29:07.031Z,38.36
2022-08-30T11:31:40.664Z,38.72
2022-08-30T11:34:09.672Z,40.04
2022-08-30T11:37:09.770Z,39.42
2022-08-30T11:39:56.306Z,38.39
2022-08-30T11:42:30.966Z,37.98
2022-08-30T11:45:16.264Z,39.34
2022-08-30T11:47:47.410Z,39.11
2022-08-30T11:50:20.475Z,38.69
2022-08-30T11:52:58.191Z,36.82
2022-08-30T11:55:37.597Z,37.89
2022-08-30T11:58:31.228Z,38.50
2022-08-30T12:01:41.835Z,42.12
2022-08-30T12:04:15.301Z,40.73
2022-08-30T12:06:57.062Z,37.54
2022-08-30T12:10:03.491Z,39.06
2022-08-30T12:13:02.195Z,40.25
2022-08-30T12:15:58.935Z,40.34
2022-08-30T12:18:45.549Z,36.15
2022-08-30T12:21:28.272Z,35.36
2022-08-30T12:24:03.696Z,34.42
2022-08-30T12:26:34.818Z,35.70
2022-08-30T12:29:12.187Z,39.38
2022-08-30T12:31:41.072Z,41.38
2022-08-30T12:34:09.320Z,41.21
2022-08-30T12:36:42.031Z,38.23
2022-08-30T12:39:12.387Z,39.23
2022-08-30T12:41:43.269Z,41.17
2022-08-30T12:44:15.589Z,39.72
2022-08-30T12:46:45.631Z,39.93
2022-08-30T12:49:16.097Z,39.55
2022-08-30T12:51:44.123Z,40.56
2022-08-30T12:54:20.860Z,41.80
2022-08-30T12:56:56.529Z,39.70
2022-08-30T12:59:59.548Z,41.09
2022-08-30T13:02:42.029Z,40.43
2022-08-30T13:05:48.072Z,40.14
2022-08-30T13:08:18.838Z,41.76
2022-08-30T13:10:55.738Z,41.46
2022-08-30T13:13:34.280Z,43.80
2022-08-30T13:16:22.477Z,45.56
2022-08-30T13:18:50.752Z,47.22
2022-08-30T13:21:29.700Z,47.43
2022-08-30T13:23:59.133Z,47.35
2022-08-30T13:26:27.582Z,47.70
2022-08-30T13:28:58.803Z,46.66
2022-08-30T13:31:28.497Z,46.82
2022-08-30T13:33:57.626Z,47.77
2022-08-30T13:36:28.239Z,47.71
2022-08-30T13:38:56.594Z,47.22
2022-08-30T13:41:25.354Z,48.11
2022-08-30T13:44:14.108Z,47.55
2022-08-30T13:46:53.529Z,48.60
2022-08-30T13:52:22.201Z,46.25
2022-08-30T13:54:50.373Z,48.22
2022-08-30T14:00:12.301Z,47.22
2022-08-30T14:02:46.300Z,46.67
2022-08-30T14:05:31.086Z,45.27
2022-08-30T14:08:02.512Z,44.87
2022-08-30T14:10:31.963Z,46.98
2022-08-30T14:13:08.068Z,46.78
2022-08-30T14:15:39.045Z,42.18
2022-08-30T14:18:08.879Z,41.40
2022-08-30T14:20:38.641Z,40.41
2022-08-30T14:23:09.948Z,39.88
2022-08-30T14:25:37.475Z,42.87
2022-08-30T14:28:04.381Z,41.29
2022-08-30T14:30:31.968Z,42.03
2022-08-30T14:33:00.240Z,40.85
2022-08-30T14:35:28.935Z,42.55
2022-08-30T14:37:56.086Z,42.38
2022-08-30T14:40:24.274Z,41.45
2022-08-30T14:42:51.203Z,41.22
2022-08-30T14:45:27.083Z,43.01
2022-08-30T14:47:54.003Z,43.83
2022-08-30T14:50:21.016Z,43.99
2022-08-30T14:52:49.346Z,46.40
2022-08-30T14:55:16.229Z,45.79
2022-08-30T14:57:43.258Z,43.88
2022-08-30T15:00:13.227Z,43.08
2022-08-30T15:02:40.807Z,46.34
2022-08-30T15:05:08.630Z,48.04
2022-08-30T15:07:35.685Z,48.08
2022-08-30T15:10:05.430Z,48.95
2022-08-30T15:12:33.306Z,48.48
2022-08-30T15:15:00.577Z,50.70
2022-08-30T15:17:27.821Z,50.30
2022-08-30T15:19:54.672Z,50.68
2022-08-30T15:22:21.438Z,52.57
2022-08-30T15:24:49.042Z,50.63
2022-08-30T15:27:19.050Z,52.07
2022-08-30T15:29:45.919Z,51.79
2022-08-30T15:32:16.890Z,52.15
2022-08-30T15:34:45.467Z,52.74
2022-08-30T15:37:23.456Z,53.35
2022-08-30T15:39:54.710Z,51.67
2022-08-30T15:42:22.976Z,53.72
2022-08-30T15:44:50.929Z,54.14
2022-08-30T15:47:20.280Z,53.65
2022-08-30T15:49:54.867Z,55.71
2022-08-30T15:52:21.796Z,54.27
2022-08-30T15:54:49.146Z,55.00
2022-08-30T15:57:17.713Z,56.27
2022-08-30T15:59:46.422Z,56.07
2022-08-30T16:02:14.152Z,57.01
2022-08-30T16:04:44.732Z,57.27
2022-08-30T16:07:13.842Z,57.63
2022-08-30T16:09:41.148Z,59.87
2022-08-30T16:12:09.851Z,59.05
2022-08-30T16:14:37.249Z,58.85
2022-08-30T16:17:06.435Z,59.07
2022-08-30T16:19:34.343Z,57.78
2022-08-30T16:22:01.348Z,60.02
2022-08-30T16:24:28.494Z,59.12
2022-08-30T16:26:55.488Z,58.44
2022-08-30T16:29:22.499Z,61.25
2022-08-30T16:31:49.562Z,61.17
2022-08-30T16:34:20.366Z,62.22
2022-08-30T16:36:47.524Z,62.21
2022-08-30T16:39:14.640Z,63.03
2022-08-30T16:41:44.767Z,61.81
2022-08-30T16:44:12.680Z,60.60
2022-08-30T16:46:41.331Z,62.72
2022-08-30T16:49:08.892Z,63.68
2022-08-30T16:51:38.622Z,64.28
2022-08-30T16:54:07.757Z,65.41
2022-08-30T16:56:36.351Z,66.08
2022-08-30T16:59:09.057Z,65.31
2022-08-30T17:01:38.909Z,65.46
2022-08-30T17:04:08.266Z,65.89
2022-08-30T17:06:36.028Z,65.54
2022-08-30T17:09:04.874Z,65.23
2022-08-30T17:11:31.788Z,65.15
2022-08-30T17:13:58.614Z,65.37
2022-08-30T17:16:27.674Z,65.77
2022-08-30T17:18:55.645Z,66.16
2022-08-30T17:21:23.239Z,64.72
2022-08-30T17:23:50.478Z,64.57
2022-08-30T17:26:19.531Z,64.18
2022-08-30T17:28:46.508Z,65.11
2022-08-30T17:31:14.939Z,65.23
2022-08-30T17:33:43.196Z,65.63
2022-08-30T17:36:12.570Z,66.29
2022-08-30T17:38:44.885Z,67.44
2022-08-30T17:41:13.192Z,67.62
2022-08-30T17:43:41.579Z,67.35
2022-08-30T17:46:11.307Z,67.18
2022-08-30T17:48:39.617Z,67.05
2022-08-30T17:51:07.314Z,67.04
2022-08-30T17:53:35.040Z,68.09
2022-08-30T17:56:02.804Z,67.79
2022-08-30T17:58:29.691Z,68.61
2022-08-30T18:04:01.406Z,69.37
2022-08-30T18:06:30.850Z,69.91
2022-08-30T18:08:57.828Z,69.86
2022-08-30T18:11:24.697Z,70.37
2022-08-30T18:13:51.618Z,70.81
2022-08-30T18:16:21.744Z,70.77
2022-08-30T18:18:56.996Z,70.70
2022-08-30T18:21:25.358Z,71.56
2022-08-30T18:23:52.502Z,71.92
2022-08-30T18:26:24.003Z,72.38
2022-08-30T18:28:51.370Z,72.81
2022-08-30T18:31:20.324Z,73.27
2022-08-30T18:33:48.022Z,74.44
2022-08-30T18:36:15.027Z,73.31
2022-08-30T18:38:42.792Z,74.41
2022-08-30T18:41:14.131Z,75.13
2022-08-30T18:43:42.237Z,74.71
2022-08-30T18:46:12.425Z,75.20
2022-08-30T18:48:42.951Z,75.97
2022-08-30T18:51:12.094Z,76.08
2022-08-30T18:53:39.582Z,76.06
2022-08-30T18:56:08.471Z,76.68
2022-08-30T18:58:35.666Z,76.76
2022-08-30T19:01:03.426Z,77.30
2022-08-30T19:03:35.165Z,76.74
2022-08-30T19:06:06.681Z,76.78
2022-08-30T19:08:37.366Z,77.23
2022-08-30T19:11:04.983Z,77.51
2022-08-30T19:13:34.978Z,77.92
2022-08-30T19:16:02.291Z,78.14
2022-08-30T19:18:29.289Z,77.60
2022-08-30T19:20:56.819Z,78.11
2022-08-30T19:23:28.372Z,77.74
2022-08-30T19:26:01.378Z,77.25
2022-08-30T19:28:28.788Z,77.14
2022-08-30T19:30:55.844Z,76.49
2022-08-30T19:33:22.724Z,76.40
2022-08-30T19:35:51.385Z,76.59
2022-08-30T19:38:18.946Z,75.78
2022-08-30T19:40:53.886Z,76.47
2022-08-30T19:43:21.660Z,76.33
2022-08-30T19:45:53.262Z,76.56
2022-08-30T19:48:22.282Z,76.96
2022-08-30T19:50:49.315Z,76.07
2022-08-30T19:53:16.466Z,75.37
2022-08-30T19:55:45.224Z,75.47
2022-08-30T19:58:13.920Z,75.77
2022-08-30T20:00:45.130Z,74.57
2022-08-30T20:03:29.201Z,74.91
2022-08-30T20:05:56.988Z,74.85
2022-08-30T20:08:24.179Z,74.91
2022-08-30T20:10:52.181Z,74.54
2022-08-30T20:13:23.870Z,74.41
2022-08-30T20:15:55.871Z,74.08
2022-08-30T20:18:26.081Z,73.77
2022-08-30T20:20:53.209Z,74.62
2022-08-30T20:23:22.760Z,75.09
2022-08-30T20:24:26.362Z,69.21
2022-08-30T20:25:52.356Z,74.33
2022-08-30T20:28:21.219Z,74.47
2022-08-30T20:30:48.261Z,73.78
2022-08-30T20:33:15.076Z,72.32
2022-08-30T20:35:48.786Z,73.37
2022-08-30T20:38:21.520Z,72.44
2022-08-30T20:40:51.468Z,72.62
2022-08-30T20:43:22.096Z,72.16
2022-08-30T20:45:49.231Z,73.21
2022-08-30T20:48:16.597Z,72.52
2022-08-30T20:50:43.574Z,71.50
2022-08-30T20:53:10.797Z,71.34
2022-08-30T20:55:41.005Z,72.12
2022-08-30T20:58:07.884Z,71.52
2022-08-30T21:00:36.871Z,71.02
2022-08-30T21:03:08.348Z,71.91
2022-08-30T21:05:52.032Z,70.50
2022-08-30T21:08:18.898Z,71.19
2022-08-30T21:10:46.396Z,71.31
2022-08-30T21:13:13.178Z,71.40
2022-08-30T21:15:46.306Z,70.80
2022-08-30T21:18:13.725Z,69.98
2022-08-30T21:20:41.024Z,70.60
2022-08-30T21:23:07.941Z,70.88
2022-08-30T21:25:37.747Z,69.84
2022-08-30T21:28:04.604Z,70.07
2022-08-30T21:30:31.631Z,70.29
2022-08-30T21:33:01.533Z,69.85
2022-08-30T21:35:46.810Z,70.03
2022-08-30T21:38:14.265Z,69.64
2022-08-30T21:40:41.574Z,69.49
2022-08-30T21:43:08.783Z,70.17
2022-08-30T21:45:37.605Z,69.99
2022-08-30T21:48:06.363Z,68.82
2022-08-30T21:50:33.306Z,69.39
2022-08-30T21:53:00.766Z,70.03
2022-08-30T21:55:27.673Z,70.00
2022-08-30T21:57:55.049Z,69.10
2022-08-30T22:00:22.221Z,68.94
2022-08-30T22:02:52.675Z,69.79
2022-08-30T22:05:21.715Z,69.56
2022-08-30T22:07:48.580Z,69.55
2022-08-30T22:10:15.330Z,69.73
2022-08-30T22:12:42.145Z,68.85
2022-08-30T22:15:09.871Z,67.63
2022-08-30T22:17:36.646Z,67.20
2022-08-30T22:20:04.460Z,67.11
2022-08-30T22:22:32.834Z,67.56
2022-08-30T22:24:59.863Z,66.84
2022-08-30T22:27:26.736Z,66.77
2022-08-30T22:29:53.582Z,67.25
2022-08-30T22:32:21.348Z,66.74
2022-08-30T22:34:48.380Z,66.57
2022-08-30T22:37:15.999Z,66.97
2022-08-30T22:39:44.090Z,66.74
2022-08-30T22:42:10.916Z,66.92
2022-08-30T22:44:37.793Z,67.02
2022-08-30T22:47:04.871Z,67.58
2022-08-30T22:49:31.764Z,67.96
2022-08-30T22:51:58.541Z,67.14
2022-08-30T22:54:25.459Z,66.95
2022-08-30T22:56:53.639Z,67.67
2022-08-30T22:59:20.515Z,67.11
2022-08-30T23:01:54.269Z,67.46
2022-08-30T23:04:21.060Z,67.11
2022-08-30T23:06:49.746Z,67.13
2022-08-30T23:09:17.212Z,66.81
2022-08-30T23:11:43.935Z,67.42
2022-08-30T23:14:12.334Z,67.77
2022-08-30T23:16:39.296Z,66.79
2022-08-30T23:19:06.365Z,67.83
2022-08-30T23:21:33.162Z,67.59
2022-08-30T23:24:18.460Z,68.04
2022-08-30T23:27:06.379Z,67.12
2022-08-30T23:29:53.088Z,66.77
2022-08-30T23:32:39.374Z,66.82
2022-08-30T23:35:29.483Z,66.32
2022-08-30T23:38:16.125Z,66.55
2022-08-30T23:41:01.410Z,67.20
2022-08-30T23:43:46.676Z,64.97
2022-08-30T23:46:34.044Z,65.87
2022-08-30T23:49:19.884Z,66.09
2022-08-30T23:52:05.353Z,65.61
2022-08-30T23:54:50.639Z,66.39
2022-08-30T23:57:36.553Z,66.91
